createdAt,value
2017-10-29T00:00:23.591Z,1.07
2017-10-29T00:02:51.960Z,1.30
2017-10-29T00:05:20.303Z,1.30
2017-10-29T00:07:48.682Z,3.00
2017-10-29T00:10:17.032Z,2.00
2017-10-29T00:12:45.378Z,2.10
2017-10-29T00:15:13.754Z,3.10
2017-10-29T00:17:42.095Z,3.50
2017-10-29T00:20:10.472Z,7.27
2017-10-29T00:22:38.815Z,3.90
2017-10-29T00:25:07.191Z,3.40
2017-10-29T00:27:35.564Z,2.17
2017-10-29T00:30:03.938Z,2.47
2017-10-29T00:32:32.311Z,2.87
2017-10-29T00:35:00.655Z,3.30
2017-10-29T00:37:29.019Z,3.13
2017-10-29T00:39:57.367Z,3.50
2017-10-29T00:42:25.725Z,3.30
2017-10-29T00:44:54.064Z,3.00
2017-10-29T00:47:22.433Z,3.07
2017-10-29T00:49:50.785Z,3.40
2017-10-29T00:52:19.142Z,3.33
2017-10-29T00:54:47.492Z,3.80
2017-10-29T00:57:15.875Z,4.20
2017-10-29T00:59:44.214Z,3.40
2017-10-29T01:02:12.587Z,3.43
2017-10-29T01:04:40.954Z,6.10
2017-10-29T01:07:09.337Z,2.73
2017-10-29T01:09:37.681Z,3.00
2017-10-29T01:12:06.023Z,2.60
2017-10-29T01:14:34.379Z,2.43
2017-10-29T01:17:02.719Z,3.20
2017-10-29T01:19:31.091Z,2.50
2017-10-29T01:21:59.463Z,2.60
2017-10-29T01:24:27.845Z,2.37
2017-10-29T01:26:56.210Z,2.30
2017-10-29T01:29:24.559Z,1.50
2017-10-29T01:31:52.907Z,2.00
2017-10-29T01:34:21.282Z,1.53
2017-10-29T01:36:49.771Z,1.60
2017-10-29T01:39:18.115Z,1.50
2017-10-29T01:41:46.459Z,1.40
2017-10-29T01:44:14.800Z,2.83
2017-10-29T01:46:43.171Z,6.23
2017-10-29T01:49:11.512Z,1.90
2017-10-29T01:51:39.890Z,3.73
2017-10-29T01:54:08.240Z,1.43
2017-10-29T01:56:36.614Z,1.63
2017-10-29T01:59:04.984Z,1.77
2017-10-29T02:01:33.367Z,1.87
2017-10-29T02:04:01.707Z,2.37
2017-10-29T02:06:30.056Z,2.70
2017-10-29T02:08:58.413Z,2.13
2017-10-29T02:11:26.769Z,1.80
2017-10-29T02:13:55.139Z,2.03
2017-10-29T02:16:23.485Z,1.47
2017-10-29T02:18:51.855Z,1.70
2017-10-29T02:21:20.225Z,1.37
2017-10-29T02:23:48.573Z,1.60
2017-10-29T02:26:16.917Z,3.60
2017-10-29T02:28:45.290Z,2.20
2017-10-29T02:31:13.655Z,1.70
2017-10-29T02:33:41.999Z,4.70
2017-10-29T02:36:10.374Z,1.40
2017-10-29T02:38:38.748Z,1.70
2017-10-29T02:41:07.121Z,1.50
2017-10-29T02:43:35.477Z,1.60
2017-10-29T02:46:03.852Z,2.40
2017-10-29T02:48:32.206Z,3.37
2017-10-29T02:51:00.546Z,4.20
2017-10-29T02:53:28.933Z,3.33
2017-10-29T02:55:57.275Z,3.40
2017-10-29T02:58:25.644Z,3.03
2017-10-29T03:00:54.021Z,3.40
2017-10-29T03:03:22.434Z,2.70
2017-10-29T03:05:50.779Z,2.37
2017-10-29T03:08:19.120Z,2.87
2017-10-29T03:10:47.466Z,2.30
2017-10-29T03:13:15.810Z,3.13
2017-10-29T03:15:44.183Z,3.10
2017-10-29T03:18:12.536Z,2.87
2017-10-29T03:20:40.876Z,4.57
2017-10-29T03:23:09.246Z,4.87
2017-10-29T03:25:37.614Z,4.30
2017-10-29T03:28:05.955Z,3.57
2017-10-29T03:30:34.302Z,4.20
2017-10-29T03:33:02.657Z,3.47
2017-10-29T03:35:31.041Z,2.50
2017-10-29T03:37:59.391Z,2.40
2017-10-29T03:40:27.733Z,3.10
2017-10-29T03:42:56.098Z,3.50
2017-10-29T03:45:24.442Z,2.67
2017-10-29T03:47:52.828Z,2.90
2017-10-29T03:50:21.172Z,1.93
2017-10-29T03:52:49.512Z,1.57
2017-10-29T03:55:17.856Z,1.50
2017-10-29T03:57:46.191Z,1.53
2017-10-29T04:00:14.564Z,2.17
2017-10-29T04:02:42.896Z,1.70
2017-10-29T04:05:11.262Z,1.50
2017-10-29T04:07:39.609Z,1.53
2017-10-29T04:10:07.975Z,2.20
2017-10-29T04:12:36.315Z,1.90
2017-10-29T04:15:04.678Z,1.50
2017-10-29T04:17:33.024Z,2.07
2017-10-29T04:20:01.399Z,2.00
2017-10-29T04:22:29.742Z,2.30
2017-10-29T04:24:58.100Z,1.73
2017-10-29T04:27:26.451Z,2.17
2017-10-29T04:29:54.803Z,2.00
2017-10-29T04:32:23.147Z,2.13
2017-10-29T04:34:51.535Z,2.60
2017-10-29T04:37:19.872Z,1.97
2017-10-29T04:39:48.248Z,1.70
2017-10-29T04:42:16.587Z,1.53
2017-10-29T04:44:44.967Z,1.77
2017-10-29T04:47:13.358Z,2.37
2017-10-29T04:49:41.723Z,2.10
2017-10-29T04:52:10.069Z,1.77
2017-10-29T04:54:38.405Z,2.37
2017-10-29T04:57:06.747Z,1.90
2017-10-29T04:59:35.122Z,3.43
2017-10-29T05:02:03.477Z,2.10
2017-10-29T05:04:31.952Z,1.83
2017-10-29T05:07:00.292Z,2.20
2017-10-29T05:09:28.648Z,3.60
2017-10-29T05:11:56.982Z,2.60
2017-10-29T05:14:25.326Z,2.17
2017-10-29T05:16:53.704Z,3.03
2017-10-29T05:19:22.049Z,3.70
2017-10-29T05:21:50.392Z,2.10
2017-10-29T05:24:18.735Z,2.17
2017-10-29T05:26:47.100Z,3.50
2017-10-29T05:29:15.474Z,3.50
2017-10-29T05:31:43.858Z,3.30
2017-10-29T05:34:12.246Z,3.10
2017-10-29T05:36:40.587Z,3.90
2017-10-29T05:39:08.922Z,3.33
2017-10-29T05:41:37.299Z,2.87
2017-10-29T05:44:05.636Z,3.70
2017-10-29T05:46:33.982Z,2.70
2017-10-29T05:49:02.331Z,3.23
2017-10-29T05:51:30.711Z,4.13
2017-10-29T05:53:59.081Z,3.77
2017-10-29T05:56:27.474Z,3.20
2017-10-29T05:58:55.833Z,3.80
2017-10-29T06:01:24.188Z,2.90
2017-10-29T06:03:52.531Z,2.60
2017-10-29T06:06:20.911Z,3.00
2017-10-29T06:08:49.258Z,3.30
2017-10-29T06:11:17.630Z,2.90
2017-10-29T06:13:46.017Z,3.50
2017-10-29T06:16:14.384Z,4.07
2017-10-29T06:18:42.773Z,3.00
2017-10-29T06:21:11.131Z,4.20
2017-10-29T06:23:39.487Z,3.80
2017-10-29T06:26:07.861Z,4.37
2017-10-29T06:28:36.236Z,4.53
2017-10-29T06:31:04.636Z,4.60
2017-10-29T06:33:33.927Z,4.00
2017-10-29T06:36:02.293Z,5.27
2017-10-29T06:38:30.670Z,4.20
2017-10-29T06:40:59.016Z,4.10
2017-10-29T06:43:27.359Z,3.00
2017-10-29T06:45:55.709Z,3.70
2017-10-29T06:48:24.087Z,4.20
2017-10-29T06:50:52.428Z,3.93
2017-10-29T06:53:20.802Z,4.03
2017-10-29T06:55:49.177Z,3.33
2017-10-29T06:58:17.527Z,4.10
2017-10-29T07:00:45.862Z,3.30
2017-10-29T07:03:14.222Z,4.40
2017-10-29T07:05:42.575Z,3.27
2017-10-29T07:08:10.956Z,4.33
2017-10-29T07:10:39.326Z,3.37
2017-10-29T07:13:07.711Z,4.00
2017-10-29T07:15:36.060Z,5.10
2017-10-29T07:18:04.401Z,5.57
2017-10-29T07:20:32.735Z,3.83
2017-10-29T07:23:01.098Z,3.30
2017-10-29T07:25:29.453Z,4.93
2017-10-29T07:27:57.787Z,5.17
2017-10-29T07:30:26.148Z,5.57
2017-10-29T07:32:54.492Z,3.77
2017-10-29T07:35:22.851Z,5.47
2017-10-29T07:37:51.190Z,4.63
2017-10-29T07:40:19.539Z,5.00
2017-10-29T07:42:47.873Z,5.47
2017-10-29T07:45:16.225Z,4.80
2017-10-29T07:47:44.630Z,5.47
2017-10-29T07:50:12.976Z,5.70
2017-10-29T07:52:41.349Z,4.70
2017-10-29T07:55:09.716Z,4.17
2017-10-29T07:57:38.047Z,4.33
2017-10-29T08:00:06.406Z,7.30
2017-10-29T08:02:34.733Z,4.60
2017-10-29T08:05:03.109Z,5.07
2017-10-29T08:07:31.479Z,4.73
2017-10-29T08:09:59.814Z,4.10
2017-10-29T08:12:28.159Z,4.83
2017-10-29T08:14:56.497Z,4.87
2017-10-29T08:17:24.858Z,4.73
2017-10-29T08:19:53.198Z,4.60
2017-10-29T08:22:21.547Z,5.07
2017-10-29T08:24:49.904Z,5.10
2017-10-29T08:27:18.270Z,5.67
2017-10-29T08:29:46.647Z,5.80
2017-10-29T08:32:14.998Z,6.10
2017-10-29T08:34:43.354Z,4.27
2017-10-29T08:37:11.704Z,4.27
2017-10-29T08:39:40.072Z,4.90
2017-10-29T08:42:08.413Z,4.57
2017-10-29T08:44:36.745Z,4.20
2017-10-29T08:47:05.132Z,6.03
2017-10-29T08:49:33.507Z,5.00
2017-10-29T08:52:01.883Z,6.40
2017-10-29T08:54:30.252Z,4.57
2017-10-29T08:56:58.603Z,5.30
2017-10-29T08:59:26.955Z,3.97
2017-10-29T09:01:55.301Z,3.77
2017-10-29T09:04:23.651Z,5.27
2017-10-29T09:06:52.014Z,5.43
2017-10-29T09:09:20.351Z,5.20
2017-10-29T09:11:48.692Z,4.37
2017-10-29T09:14:17.028Z,5.93
2017-10-29T09:16:45.367Z,4.40
2017-10-29T09:19:13.728Z,4.77
2017-10-29T09:21:42.120Z,4.53
2017-10-29T09:24:10.490Z,5.00
2017-10-29T09:26:38.910Z,4.13
2017-10-29T09:29:07.270Z,4.90
2017-10-29T09:31:35.621Z,4.17
2017-10-29T09:34:03.975Z,3.60
2017-10-29T09:36:32.310Z,4.83
2017-10-29T09:39:00.703Z,4.03
2017-10-29T09:41:29.030Z,3.37
2017-10-29T09:43:57.495Z,4.90
2017-10-29T09:46:25.853Z,4.10
2017-10-29T09:48:54.187Z,4.90
2017-10-29T09:51:22.532Z,4.80
2017-10-29T09:53:50.862Z,3.93
2017-10-29T09:56:19.231Z,5.60
2017-10-29T09:58:47.619Z,4.67
2017-10-29T10:01:15.962Z,4.17
2017-10-29T10:03:44.317Z,4.43
2017-10-29T10:06:12.664Z,4.83
2017-10-29T10:08:41.038Z,5.13
2017-10-29T10:11:09.357Z,4.00
2017-10-29T10:13:37.743Z,4.30
2017-10-29T10:16:06.083Z,3.77
2017-10-29T10:18:34.466Z,4.50
2017-10-29T10:21:02.810Z,4.13
2017-10-29T10:23:31.174Z,4.17
2017-10-29T10:25:59.516Z,4.20
2017-10-29T10:28:27.887Z,3.80
2017-10-29T10:30:56.239Z,4.27
2017-10-29T10:33:24.634Z,3.73
2017-10-29T10:35:52.984Z,3.80
2017-10-29T10:38:21.336Z,3.70
2017-10-29T10:40:49.703Z,4.30
2017-10-29T10:43:18.086Z,3.20
2017-10-29T10:45:46.436Z,3.67
2017-10-29T10:48:14.798Z,4.53
2017-10-29T10:50:43.149Z,3.23
2017-10-29T10:53:11.532Z,5.00
2017-10-29T10:55:39.898Z,5.30
2017-10-29T10:58:08.251Z,3.80
2017-10-29T11:00:36.592Z,3.87
2017-10-29T11:03:04.959Z,5.00
2017-10-29T11:05:33.287Z,3.33
2017-10-29T11:08:01.654Z,2.73
2017-10-29T11:10:30.002Z,3.93
2017-10-29T11:12:58.366Z,3.40
2017-10-29T11:15:27.716Z,4.07
2017-10-29T11:17:56.092Z,2.87
2017-10-29T11:20:24.431Z,3.90
2017-10-29T11:22:52.806Z,4.13
2017-10-29T11:25:21.140Z,3.57
2017-10-29T11:27:49.487Z,4.53
2017-10-29T11:30:17.828Z,3.30
2017-10-29T11:32:46.170Z,3.67
2017-10-29T11:35:14.531Z,2.93
2017-10-29T11:37:42.868Z,3.70
2017-10-29T11:40:11.237Z,3.90
2017-10-29T11:42:39.565Z,3.27
2017-10-29T11:45:07.927Z,3.90
2017-10-29T11:47:36.258Z,4.00
2017-10-29T11:50:04.588Z,3.10
2017-10-29T11:52:32.944Z,4.57
2017-10-29T11:55:01.287Z,3.50
2017-10-29T11:57:29.641Z,3.13
2017-10-29T11:59:57.978Z,4.50
2017-10-29T12:02:26.343Z,4.80
2017-10-29T12:04:54.670Z,3.33
2017-10-29T12:07:23.008Z,3.60
2017-10-29T12:09:51.391Z,3.90
2017-10-29T12:12:19.731Z,2.73
2017-10-29T12:14:48.076Z,3.47
2017-10-29T12:17:16.433Z,3.50
2017-10-29T12:19:45.221Z,3.97
2017-10-29T12:22:14.591Z,4.67
2017-10-29T12:24:44.227Z,3.77
2017-10-29T12:27:13.366Z,4.00
2017-10-29T12:29:42.087Z,3.67
2017-10-29T12:32:12.847Z,3.50
2017-10-29T12:34:42.584Z,2.70
2017-10-29T12:37:11.204Z,3.40
2017-10-29T12:39:39.877Z,3.10
2017-10-29T12:42:08.471Z,4.40
2017-10-29T12:44:37.172Z,3.40
2017-10-29T12:47:05.984Z,3.63
2017-10-29T12:49:34.521Z,2.80
2017-10-29T12:52:03.219Z,3.17
2017-10-29T12:54:33.505Z,2.20
2017-10-29T12:57:03.098Z,2.23
2017-10-29T12:59:31.686Z,2.60
2017-10-29T13:02:00.370Z,2.20
2017-10-29T13:04:29.484Z,1.97
2017-10-29T13:06:58.531Z,2.00
2017-10-29T13:09:27.294Z,2.37
2017-10-29T13:11:55.950Z,3.30
2017-10-29T13:14:24.692Z,2.53
2017-10-29T13:16:53.225Z,2.43
2017-10-29T13:19:21.941Z,2.73
2017-10-29T13:21:50.668Z,2.70
2017-10-29T13:24:19.447Z,2.17
2017-10-29T13:26:48.102Z,2.33
2017-10-29T13:29:17.092Z,2.60
2017-10-29T13:31:46.115Z,3.47
2017-10-29T13:34:15.681Z,2.53
2017-10-29T13:36:44.352Z,3.53
2017-10-29T13:39:12.811Z,2.70
2017-10-29T13:41:41.175Z,2.97
2017-10-29T13:44:09.577Z,3.60
2017-10-29T13:46:37.964Z,3.30
2017-10-29T13:49:06.313Z,3.00
2017-10-29T13:51:34.674Z,2.80
2017-10-29T13:54:03.026Z,2.90
2017-10-29T13:56:31.405Z,3.33
2017-10-29T13:58:59.802Z,2.73
2017-10-29T14:01:28.117Z,2.93
2017-10-29T14:03:56.472Z,2.70
2017-10-29T14:06:24.993Z,3.40
2017-10-29T14:08:53.362Z,3.00
2017-10-29T14:11:21.730Z,3.23
2017-10-29T14:13:50.100Z,2.33
2017-10-29T14:16:18.460Z,2.97
2017-10-29T14:18:46.801Z,2.27
2017-10-29T14:21:15.142Z,3.20
2017-10-29T14:23:43.477Z,3.40
2017-10-29T14:26:11.814Z,3.73
2017-10-29T14:28:40.172Z,2.50
2017-10-29T14:31:08.508Z,3.33
2017-10-29T14:33:36.886Z,3.13
2017-10-29T14:36:05.251Z,3.30
2017-10-29T14:38:33.590Z,2.63
2017-10-29T14:41:01.924Z,3.00
2017-10-29T14:43:30.286Z,3.50
2017-10-29T14:45:58.615Z,4.23
2017-10-29T14:48:27.315Z,3.10
2017-10-29T14:50:56.062Z,3.97
2017-10-29T14:53:24.960Z,3.17
2017-10-29T14:55:53.831Z,3.07
2017-10-29T14:58:22.545Z,3.93
2017-10-29T15:00:51.106Z,3.33
2017-10-29T15:03:19.799Z,3.30
2017-10-29T15:05:48.549Z,3.73
2017-10-29T15:08:17.249Z,2.40
2017-10-29T15:10:45.732Z,2.00
2017-10-29T15:13:14.289Z,3.50
2017-10-29T15:15:42.653Z,3.03
2017-10-29T15:18:11.086Z,2.67
2017-10-29T15:20:40.069Z,2.60
2017-10-29T15:23:08.442Z,1.90
2017-10-29T15:25:36.814Z,1.77
2017-10-29T15:28:05.160Z,2.10
2017-10-29T15:30:33.506Z,2.50
2017-10-29T15:33:01.886Z,2.20
2017-10-29T15:35:30.271Z,2.90
2017-10-29T15:37:58.607Z,2.30
2017-10-29T15:40:27.404Z,2.17
2017-10-29T15:42:56.131Z,3.80
2017-10-29T15:48:23.130Z,2.37
2017-10-29T15:50:51.487Z,2.10
2017-10-29T15:53:19.843Z,2.17
2017-10-29T15:55:48.237Z,2.37
2017-10-29T15:58:16.816Z,2.77
2017-10-29T16:00:45.550Z,2.13
2017-10-29T16:03:13.982Z,2.10
2017-10-29T16:05:42.491Z,3.00
2017-10-29T16:08:11.151Z,2.27
2017-10-29T16:10:39.608Z,2.90
2017-10-29T16:13:07.942Z,2.57
2017-10-29T16:15:36.339Z,2.57
2017-10-29T16:20:39.211Z,2.83
2017-10-29T16:23:07.572Z,3.00
2017-10-29T16:25:35.940Z,4.77
2017-10-29T16:28:04.287Z,3.13
2017-10-29T16:30:32.694Z,2.60
2017-10-29T16:33:01.084Z,4.23
2017-10-29T16:35:29.506Z,2.77
2017-10-29T16:37:57.843Z,2.57
2017-10-29T16:40:26.247Z,3.37
2017-10-29T16:42:54.611Z,3.27
2017-10-29T16:45:22.977Z,2.80
2017-10-29T16:47:51.307Z,2.83
2017-10-29T16:50:19.683Z,3.93
2017-10-29T16:52:48.096Z,3.40
2017-10-29T16:55:16.457Z,3.50
2017-10-29T16:57:44.803Z,3.60
2017-10-29T17:00:13.179Z,2.60
2017-10-29T17:02:41.682Z,3.27
2017-10-29T17:05:10.027Z,2.67
2017-10-29T17:07:38.359Z,3.50
2017-10-29T17:10:06.694Z,3.10
2017-10-29T17:12:35.036Z,3.23
2017-10-29T17:15:03.407Z,3.00
2017-10-29T17:17:31.751Z,3.40
2017-10-29T17:20:00.098Z,4.00
2017-10-29T17:22:28.448Z,3.40
2017-10-29T17:24:56.818Z,3.00
2017-10-29T17:27:25.180Z,4.27
2017-10-29T17:29:53.582Z,3.37
2017-10-29T17:32:21.956Z,4.13
2017-10-29T17:34:50.322Z,3.30
2017-10-29T17:37:18.707Z,4.13
2017-10-29T17:39:47.071Z,3.17
2017-10-29T17:42:15.448Z,4.13
2017-10-29T17:44:43.821Z,4.43
2017-10-29T17:47:12.161Z,3.67
2017-10-29T17:49:40.533Z,4.60
2017-10-29T17:52:08.911Z,3.43
2017-10-29T17:54:37.285Z,3.30
2017-10-29T17:57:05.668Z,3.40
2017-10-29T17:59:34.007Z,2.80
2017-10-29T18:02:02.535Z,3.50
2017-10-29T18:04:30.873Z,3.30
2017-10-29T18:06:59.210Z,3.57
2017-10-29T18:09:27.547Z,3.57
2017-10-29T18:11:55.915Z,3.07
2017-10-29T18:14:24.278Z,2.90
2017-10-29T18:16:52.666Z,3.67
2017-10-29T18:19:21.020Z,3.80
2017-10-29T18:21:49.407Z,4.10
2017-10-29T18:24:17.784Z,2.80
2017-10-29T18:26:46.140Z,2.77
2017-10-29T18:29:15.499Z,3.63
2017-10-29T18:31:43.842Z,3.03
2017-10-29T18:34:12.229Z,3.57
2017-10-29T18:36:40.586Z,2.97
2017-10-29T18:39:08.941Z,3.00
2017-10-29T18:41:37.304Z,3.67
2017-10-29T18:44:05.688Z,3.30
2017-10-29T18:46:34.059Z,3.27
2017-10-29T18:49:02.399Z,2.73
2017-10-29T18:51:30.787Z,3.63
2017-10-29T18:53:59.122Z,3.63
2017-10-29T18:56:27.468Z,4.43
2017-10-29T18:58:55.838Z,3.40
2017-10-29T19:01:24.257Z,3.87
2017-10-29T19:03:52.657Z,3.13
2017-10-29T19:06:21.000Z,3.70
2017-10-29T19:08:49.381Z,3.67
2017-10-29T19:11:17.733Z,4.03
2017-10-29T19:13:46.086Z,4.23
2017-10-29T19:16:14.437Z,3.80
2017-10-29T19:18:42.828Z,3.83
2017-10-29T19:21:11.165Z,4.50
2017-10-29T19:23:39.507Z,4.40
2017-10-29T19:26:07.895Z,4.37
2017-10-29T19:28:36.240Z,5.10
2017-10-29T19:31:04.583Z,5.00
2017-10-29T19:33:32.926Z,3.80
2017-10-29T19:36:01.292Z,3.70
2017-10-29T19:38:29.662Z,3.97
2017-10-29T19:40:58.935Z,4.40
2017-10-29T19:43:27.278Z,3.40
2017-10-29T19:45:55.646Z,4.33
2017-10-29T19:48:24.034Z,4.03
2017-10-29T19:50:52.387Z,4.67
2017-10-29T19:53:20.747Z,3.53
2017-10-29T19:55:49.136Z,4.50
2017-10-29T19:58:17.477Z,3.17
2017-10-29T20:00:45.854Z,5.00
2017-10-29T20:03:14.207Z,3.33
2017-10-29T20:05:42.554Z,4.60
2017-10-29T20:08:10.892Z,4.60
2017-10-29T20:10:39.236Z,3.40
2017-10-29T20:13:08.527Z,4.00
2017-10-29T20:15:38.255Z,3.70
2017-10-29T20:18:06.824Z,3.70
2017-10-29T20:20:35.216Z,4.70
2017-10-29T20:23:03.560Z,3.97
2017-10-29T20:25:31.987Z,4.20
2017-10-29T20:28:00.401Z,4.40
2017-10-29T20:30:29.436Z,4.40
2017-10-29T20:32:57.799Z,4.47
2017-10-29T20:35:27.368Z,4.87
2017-10-29T20:37:55.813Z,3.23
2017-10-29T20:40:25.467Z,5.13
2017-10-29T20:42:59.897Z,4.43
2017-10-29T20:45:28.258Z,4.20
2017-10-29T20:50:57.206Z,4.23
2017-10-29T20:53:26.000Z,7.17
2017-10-29T20:55:55.042Z,6.57
2017-10-29T20:58:23.439Z,4.10
2017-10-29T21:00:51.925Z,4.37
2017-10-29T21:03:20.283Z,4.23
2017-10-29T21:05:48.627Z,3.80
2017-10-29T21:08:17.944Z,4.30
2017-10-29T21:10:47.099Z,4.90
2017-10-29T21:17:04.128Z,4.60
2017-10-29T21:19:32.728Z,4.00
2017-10-29T21:22:01.464Z,4.70
2017-10-29T21:24:29.826Z,3.83
2017-10-29T21:26:58.159Z,4.43
2017-10-29T21:29:26.562Z,4.87
2017-10-29T21:31:54.902Z,4.73
2017-10-29T21:34:23.279Z,4.60
2017-10-29T21:36:53.589Z,4.33
2017-10-29T21:39:21.947Z,6.20
2017-10-29T21:41:50.319Z,4.07
2017-10-29T21:44:18.700Z,4.37
2017-10-29T21:46:47.057Z,3.77
2017-10-29T21:49:15.413Z,3.90
2017-10-29T21:51:43.784Z,4.10
2017-10-29T21:54:12.143Z,4.40
2017-10-29T21:56:40.523Z,4.60
2017-10-29T21:59:08.865Z,4.80
2017-10-29T22:01:37.220Z,6.07
2017-10-29T22:04:05.651Z,4.70
2017-10-29T22:06:33.987Z,4.33
2017-10-29T22:09:02.372Z,6.70
2017-10-29T22:11:30.728Z,4.70
2017-10-29T22:13:59.077Z,4.77
2017-10-29T22:16:27.415Z,6.20
2017-10-29T22:18:55.791Z,4.23
2017-10-29T22:21:24.135Z,4.50
2017-10-29T22:23:53.318Z,4.20
2017-10-29T22:26:21.687Z,3.63
2017-10-29T22:28:50.031Z,3.97
2017-10-29T22:31:18.386Z,4.80
2017-10-29T22:33:46.723Z,5.83
2017-10-29T22:36:15.067Z,4.83
2017-10-29T22:38:43.436Z,6.20
2017-10-29T22:41:11.804Z,5.57
2017-10-29T22:43:40.133Z,4.13
2017-10-29T22:46:08.478Z,4.60
2017-10-29T22:48:36.825Z,6.10
2017-10-29T22:51:05.166Z,4.30
2017-10-29T22:53:33.531Z,4.37
2017-10-29T22:56:01.895Z,3.90
2017-10-29T22:58:30.231Z,5.70
2017-10-29T23:00:58.593Z,4.30
2017-10-29T23:03:26.940Z,4.63
2017-10-29T23:05:55.897Z,4.40
2017-10-29T23:08:31.086Z,4.87
2017-10-29T23:10:59.457Z,3.80
2017-10-29T23:13:27.799Z,3.37
2017-10-29T23:15:56.172Z,5.20
2017-10-29T23:18:24.512Z,4.90
2017-10-29T23:20:52.865Z,3.63
2017-10-29T23:23:21.224Z,3.43
2017-10-29T23:25:49.658Z,3.77
2017-10-29T23:28:18.031Z,4.67
2017-10-29T23:30:46.362Z,4.30
2017-10-29T23:33:14.695Z,4.30
2017-10-29T23:35:43.036Z,6.37
2017-10-29T23:38:11.387Z,4.50
2017-10-29T23:40:39.729Z,5.50
2017-10-29T23:43:08.096Z,4.90
2017-10-29T23:45:36.462Z,3.60
2017-10-29T23:48:04.798Z,3.83
2017-10-29T23:50:33.167Z,4.27
2017-10-29T23:53:01.512Z,3.27
2017-10-29T23:55:29.878Z,3.67
2017-10-29T23:57:58.256Z,4.40
